createdAt,value
2022-12-03T00:01:59.858Z,4.49
2022-12-03T00:04:26.914Z,4.94
2022-12-03T00:06:53.715Z,5.00
2022-12-03T00:09:20.411Z,5.01
2022-12-03T00:11:47.038Z,5.13
2022-12-03T00:14:13.621Z,5.21
2022-12-03T00:16:40.203Z,5.17
2022-12-03T00:19:07.751Z,4.78
2022-12-03T00:21:34.851Z,4.46
2022-12-03T00:24:01.739Z,4.83
2022-12-03T00:26:28.422Z,4.55
2022-12-03T00:28:55.227Z,4.95
2022-12-03T00:31:23.718Z,4.85
2022-12-03T00:33:51.330Z,4.86
2022-12-03T00:36:18.441Z,5.02
2022-12-03T00:38:45.472Z,4.45
2022-12-03T00:41:13.107Z,4.76
2022-12-03T00:43:40.097Z,5.09
2022-12-03T00:46:06.736Z,4.67
2022-12-03T00:48:33.421Z,5.11
2022-12-03T00:51:00.194Z,5.22
2022-12-03T00:53:26.816Z,5.28
2022-12-03T00:55:53.413Z,5.28
2022-12-03T00:58:20.034Z,5.10
2022-12-03T01:00:46.672Z,5.11
2022-12-03T01:03:13.319Z,5.05
2022-12-03T01:05:39.959Z,5.03
2022-12-03T01:08:06.711Z,5.06
2022-12-03T01:10:33.342Z,5.02
2022-12-03T01:12:59.924Z,5.02
2022-12-03T01:15:26.484Z,5.03
2022-12-03T01:17:54.281Z,5.14
2022-12-03T01:20:21.164Z,5.10
2022-12-03T01:22:47.760Z,5.17
2022-12-03T01:25:14.614Z,4.66
2022-12-03T01:27:41.326Z,4.82
2022-12-03T01:30:08.307Z,4.55
2022-12-03T01:32:34.973Z,4.15
2022-12-03T01:35:01.549Z,4.59
2022-12-03T01:37:28.244Z,4.93
2022-12-03T01:39:54.788Z,5.11
2022-12-03T01:42:25.768Z,4.73
2022-12-03T01:44:55.969Z,4.59
2022-12-03T01:47:27.405Z,4.30
2022-12-03T01:49:58.113Z,4.49
2022-12-03T01:52:28.840Z,4.20
2022-12-03T01:54:58.270Z,4.66
2022-12-03T01:57:27.837Z,4.34
2022-12-03T01:59:57.681Z,4.11
2022-12-03T02:02:29.500Z,4.51
2022-12-03T02:04:57.435Z,4.79
2022-12-03T02:07:28.393Z,4.85
2022-12-03T02:09:57.343Z,4.98
2022-12-03T02:12:34.488Z,4.80
2022-12-03T02:15:01.940Z,4.51
2022-12-03T02:17:28.832Z,4.58
2022-12-03T02:19:56.321Z,4.88
2022-12-03T02:22:46.282Z,5.07
2022-12-03T02:25:19.329Z,5.12
2022-12-03T02:27:48.185Z,5.08
2022-12-03T02:30:19.535Z,5.10
2022-12-03T02:32:47.864Z,5.08
2022-12-03T02:35:26.702Z,5.09
2022-12-03T02:37:58.690Z,4.95
2022-12-03T02:40:29.755Z,4.95
2022-12-03T02:42:59.780Z,4.95
2022-12-03T02:45:32.431Z,4.89
2022-12-03T02:48:21.115Z,4.97
2022-12-03T02:51:02.491Z,4.88
2022-12-03T02:53:36.537Z,5.04
2022-12-03T02:56:03.794Z,4.81
2022-12-03T02:58:32.728Z,4.96
2022-12-03T03:01:01.986Z,5.02
2022-12-03T03:03:30.487Z,5.14
2022-12-03T03:05:58.656Z,4.97
2022-12-03T03:08:26.381Z,4.78
2022-12-03T03:10:53.955Z,5.03
2022-12-03T03:13:21.125Z,5.13
2022-12-03T03:15:48.007Z,4.90
2022-12-03T03:18:15.929Z,4.95
2022-12-03T03:20:42.772Z,4.92
2022-12-03T03:23:12.364Z,4.65
2022-12-03T03:25:40.817Z,4.83
2022-12-03T03:28:08.055Z,4.39
2022-12-03T03:30:36.275Z,4.70
2022-12-03T03:33:03.151Z,4.78
2022-12-03T03:35:29.846Z,4.44
2022-12-03T03:37:58.615Z,4.51
2022-12-03T03:40:25.982Z,4.59
2022-12-03T03:42:55.420Z,4.59
2022-12-03T03:45:27.310Z,4.92
2022-12-03T03:47:57.960Z,5.08
2022-12-03T03:50:25.374Z,4.94
2022-12-03T03:52:52.092Z,4.89
2022-12-03T03:55:20.361Z,4.94
2022-12-03T03:57:48.219Z,4.92
2022-12-03T04:00:16.860Z,4.88
2022-12-03T04:02:43.727Z,4.86
2022-12-03T04:05:16.918Z,4.49
2022-12-03T04:07:43.613Z,4.63
2022-12-03T04:10:29.949Z,4.64
2022-12-03T04:12:56.659Z,4.91
2022-12-03T04:15:24.336Z,4.78
2022-12-03T04:18:11.131Z,4.44
2022-12-03T04:20:38.498Z,4.76
2022-12-03T04:23:05.850Z,4.43
2022-12-03T04:25:50.904Z,4.41
2022-12-03T04:28:36.158Z,4.36
2022-12-03T04:31:22.774Z,4.56
2022-12-03T04:34:08.162Z,4.55
2022-12-03T04:36:34.733Z,4.71
2022-12-03T04:39:01.311Z,4.84
2022-12-03T04:41:27.840Z,4.76
2022-12-03T04:44:13.526Z,4.44
2022-12-03T04:46:40.117Z,4.39
2022-12-03T04:49:06.751Z,4.55
2022-12-03T04:51:33.391Z,4.36
2022-12-03T04:54:00.006Z,4.61
2022-12-03T04:56:26.608Z,4.49
2022-12-03T04:58:53.198Z,4.28
2022-12-03T05:01:19.926Z,4.67
2022-12-03T05:03:46.500Z,4.80
2022-12-03T05:06:13.106Z,4.74
2022-12-03T05:08:39.765Z,4.65
2022-12-03T05:11:06.592Z,4.43
2022-12-03T05:13:33.249Z,4.36
2022-12-03T05:16:00.339Z,4.25
2022-12-03T05:18:26.933Z,4.38
2022-12-03T05:20:53.898Z,4.40
2022-12-03T05:23:21.021Z,4.48
2022-12-03T05:25:47.646Z,4.18
2022-12-03T05:28:14.348Z,3.98
2022-12-03T05:30:41.168Z,4.28
2022-12-03T05:33:07.859Z,4.20
2022-12-03T05:35:34.446Z,3.70
2022-12-03T05:38:01.132Z,4.24
2022-12-03T05:40:28.487Z,4.29
2022-12-03T05:42:55.193Z,4.41
2022-12-03T05:45:22.311Z,4.10
2022-12-03T05:47:49.397Z,4.28
2022-12-03T05:50:16.072Z,4.11
2022-12-03T05:52:42.716Z,4.16
2022-12-03T05:55:10.646Z,3.76
2022-12-03T05:57:38.020Z,4.26
2022-12-03T06:00:08.044Z,4.19
2022-12-03T06:02:39.168Z,4.23
2022-12-03T06:05:06.382Z,4.30
2022-12-03T06:07:33.077Z,4.47
2022-12-03T06:09:59.754Z,4.45
2022-12-03T06:12:26.464Z,4.40
2022-12-03T06:14:54.913Z,4.54
2022-12-03T06:17:21.771Z,4.55
2022-12-03T06:19:48.346Z,4.58
2022-12-03T06:22:14.968Z,4.54
2022-12-03T06:24:41.586Z,4.69
2022-12-03T06:27:08.167Z,4.72
2022-12-03T06:29:34.772Z,4.88
2022-12-03T06:32:01.473Z,4.70
2022-12-03T06:34:28.053Z,4.59
2022-12-03T06:36:54.657Z,4.73
2022-12-03T06:39:21.551Z,4.61
2022-12-03T06:41:48.474Z,4.43
2022-12-03T06:44:15.475Z,4.57
2022-12-03T06:46:42.277Z,4.63
2022-12-03T06:49:11.643Z,4.73
2022-12-03T06:51:38.250Z,4.69
2022-12-03T06:54:05.551Z,4.78
2022-12-03T06:56:36.746Z,4.85
2022-12-03T06:59:05.972Z,4.86
2022-12-03T07:01:32.677Z,4.75
2022-12-03T07:03:59.512Z,4.82
2022-12-03T07:06:26.086Z,4.89
2022-12-03T07:08:52.766Z,4.84
2022-12-03T07:11:31.429Z,4.57
2022-12-03T07:14:04.625Z,4.73
2022-12-03T07:16:33.051Z,4.85
2022-12-03T07:18:59.828Z,4.78
2022-12-03T07:21:26.781Z,4.82
2022-12-03T07:23:53.377Z,4.86
2022-12-03T07:26:19.975Z,4.74
2022-12-03T07:28:48.235Z,4.72
2022-12-03T07:31:15.445Z,4.88
2022-12-03T07:33:42.411Z,4.53
2022-12-03T07:36:09.992Z,4.60
2022-12-03T07:38:36.642Z,4.68
2022-12-03T07:41:03.375Z,4.71
2022-12-03T07:43:29.969Z,4.53
2022-12-03T07:45:56.560Z,4.72
2022-12-03T07:48:23.151Z,4.36
2022-12-03T07:50:49.774Z,4.59
2022-12-03T07:53:16.452Z,4.44
2022-12-03T07:55:43.069Z,4.22
2022-12-03T07:58:09.668Z,4.23
2022-12-03T08:00:36.368Z,4.55
2022-12-03T08:03:03.072Z,4.35
2022-12-03T08:05:29.924Z,4.36
2022-12-03T08:07:56.870Z,4.38
2022-12-03T08:10:25.643Z,4.69
2022-12-03T08:12:53.668Z,4.74
2022-12-03T08:15:26.014Z,4.72
2022-12-03T08:18:01.114Z,4.32
2022-12-03T08:20:33.264Z,4.23
2022-12-03T08:23:06.637Z,4.58
2022-12-03T08:25:33.736Z,4.13
2022-12-03T08:28:10.714Z,3.96
2022-12-03T08:30:37.343Z,4.39
2022-12-03T08:33:17.639Z,4.19
2022-12-03T08:35:49.943Z,4.11
2022-12-03T08:38:18.808Z,4.11
2022-12-03T08:40:46.946Z,4.28
2022-12-03T08:43:18.579Z,4.33
2022-12-03T08:45:45.486Z,4.40
2022-12-03T08:48:21.035Z,4.24
2022-12-03T08:50:48.114Z,4.14
2022-12-03T08:53:27.003Z,4.29
2022-12-03T08:55:59.051Z,4.20
2022-12-03T08:58:46.832Z,4.16
2022-12-03T09:01:13.442Z,4.36
2022-12-03T09:03:48.841Z,4.57
2022-12-03T09:06:15.513Z,4.48
2022-12-03T09:08:42.230Z,4.44
2022-12-03T09:11:08.924Z,4.29
2022-12-03T09:13:37.902Z,4.25
2022-12-03T09:16:04.796Z,4.25
2022-12-03T09:18:32.496Z,4.20
2022-12-03T09:21:00.654Z,4.28
2022-12-03T09:23:27.216Z,4.25
2022-12-03T09:25:53.881Z,4.23
2022-12-03T09:28:20.451Z,4.27
2022-12-03T09:30:47.061Z,4.07
2022-12-03T09:33:14.029Z,4.11
2022-12-03T09:35:40.676Z,4.22
2022-12-03T09:38:07.324Z,4.30
2022-12-03T09:40:34.290Z,4.26
2022-12-03T09:43:00.927Z,4.51
2022-12-03T09:45:27.741Z,3.97
2022-12-03T09:47:54.998Z,4.39
2022-12-03T09:50:27.203Z,4.53
2022-12-03T09:52:56.922Z,4.18
2022-12-03T09:55:26.985Z,4.30
2022-12-03T09:57:55.016Z,4.22
2022-12-03T10:00:24.604Z,4.46
2022-12-03T10:02:54.468Z,4.18
2022-12-03T10:05:22.528Z,4.12
2022-12-03T10:07:51.704Z,4.10
2022-12-03T10:10:22.463Z,4.16
2022-12-03T10:12:50.883Z,4.22
2022-12-03T10:15:21.787Z,4.29
2022-12-03T10:17:50.611Z,4.24
2022-12-03T10:20:20.534Z,4.15
2022-12-03T10:22:48.753Z,4.22
2022-12-03T10:25:21.651Z,4.25
2022-12-03T10:28:26.001Z,4.18
2022-12-03T10:30:56.418Z,3.72
2022-12-03T10:33:29.780Z,3.95
2022-12-03T10:35:56.363Z,3.93
2022-12-03T10:38:23.654Z,4.11
2022-12-03T10:40:50.780Z,4.01
2022-12-03T10:43:20.044Z,4.03
2022-12-03T10:46:11.337Z,3.80
2022-12-03T10:48:38.442Z,4.04
2022-12-03T10:51:05.067Z,4.27
2022-12-03T10:53:35.590Z,4.24
2022-12-03T10:56:05.907Z,4.23
2022-12-03T10:58:39.059Z,4.19
2022-12-03T11:01:18.333Z,3.78
2022-12-03T11:03:45.899Z,3.87
2022-12-03T11:06:18.052Z,3.97
2022-12-03T11:08:56.193Z,3.95
2022-12-03T11:11:30.197Z,4.28
2022-12-03T11:13:57.882Z,4.33
2022-12-03T11:16:39.926Z,4.42
2022-12-03T11:19:12.615Z,3.63
2022-12-03T11:22:09.650Z,4.05
2022-12-03T11:24:38.779Z,4.34
2022-12-03T11:27:06.872Z,4.18
2022-12-03T11:29:55.969Z,4.56
2022-12-03T11:32:37.983Z,3.76
2022-12-03T11:35:11.662Z,3.91
2022-12-03T11:37:38.486Z,4.39
2022-12-03T11:40:27.080Z,4.09
2022-12-03T11:42:53.674Z,3.94
2022-12-03T11:45:37.906Z,3.99
2022-12-03T11:48:15.812Z,4.38
2022-12-03T11:50:49.508Z,4.30
2022-12-03T11:53:22.576Z,4.34
2022-12-03T11:56:06.439Z,3.85
2022-12-03T11:58:38.686Z,4.02
2022-12-03T12:01:07.256Z,3.52
2022-12-03T12:03:37.150Z,3.79
2022-12-03T12:06:20.663Z,3.87
2022-12-03T12:08:50.837Z,4.17
2022-12-03T12:11:29.491Z,4.16
2022-12-03T12:14:01.270Z,4.09
2022-12-03T12:16:38.381Z,3.99
2022-12-03T12:19:37.427Z,4.02
2022-12-03T12:22:21.128Z,3.72
2022-12-03T12:24:53.563Z,4.07
2022-12-03T12:27:29.112Z,3.94
2022-12-03T12:30:01.403Z,4.03
2022-12-03T12:32:50.052Z,4.21
2022-12-03T12:35:26.322Z,3.85
2022-12-03T12:38:11.588Z,4.00
2022-12-03T12:40:45.106Z,3.95
2022-12-03T12:43:14.354Z,3.70
2022-12-03T12:45:43.392Z,4.38
2022-12-03T12:48:09.910Z,4.50
2022-12-03T12:50:40.967Z,4.54
2022-12-03T12:53:10.684Z,3.90
2022-12-03T12:55:39.144Z,3.93
2022-12-03T12:58:16.234Z,3.55
2022-12-03T13:00:48.698Z,3.44
2022-12-03T13:03:18.814Z,3.84
2022-12-03T13:05:47.981Z,3.92
2022-12-03T13:08:31.054Z,3.83
2022-12-03T13:11:01.958Z,3.48
2022-12-03T13:13:44.334Z,3.61
2022-12-03T13:16:22.595Z,3.41
2022-12-03T13:18:54.559Z,3.68
2022-12-03T13:21:40.405Z,3.82
2022-12-03T13:24:39.599Z,3.96
2022-12-03T13:27:18.564Z,3.52
2022-12-03T13:29:47.606Z,3.82
2022-12-03T13:32:19.529Z,4.19
2022-12-03T13:34:46.992Z,3.47
2022-12-03T13:37:21.992Z,3.82
2022-12-03T13:39:56.523Z,3.57
2022-12-03T13:42:42.055Z,3.43
2022-12-03T13:45:14.935Z,3.72
2022-12-03T13:47:44.184Z,3.79
2022-12-03T13:50:24.951Z,3.95
2022-12-03T13:52:52.885Z,3.73
2022-12-03T13:55:28.351Z,3.97
2022-12-03T13:57:55.694Z,3.92
2022-12-03T14:00:23.699Z,3.95
2022-12-03T14:02:50.485Z,3.84
2022-12-03T14:05:17.104Z,4.13
2022-12-03T14:07:43.819Z,3.86
2022-12-03T14:10:12.518Z,3.47
2022-12-03T14:12:39.086Z,3.82
2022-12-03T14:15:06.615Z,3.50
2022-12-03T14:17:33.195Z,3.60
2022-12-03T14:20:03.767Z,3.66
2022-12-03T14:22:30.791Z,4.08
2022-12-03T14:24:57.729Z,4.10
2022-12-03T14:27:24.828Z,3.63
2022-12-03T14:29:52.161Z,3.87
2022-12-03T14:32:19.197Z,3.96
2022-12-03T14:34:45.796Z,3.57
2022-12-03T14:37:12.377Z,3.43
2022-12-03T14:39:39.265Z,3.71
2022-12-03T14:42:14.851Z,3.48
2022-12-03T14:44:49.123Z,3.93
2022-12-03T14:47:18.156Z,4.08
2022-12-03T14:49:44.962Z,4.21
2022-12-03T14:52:12.860Z,4.38
2022-12-03T14:54:42.255Z,4.10
2022-12-03T14:57:11.427Z,4.08
2022-12-03T14:59:39.007Z,4.48
2022-12-03T15:02:05.684Z,4.55
2022-12-03T15:04:32.335Z,4.23
2022-12-03T15:06:58.937Z,4.28
2022-12-03T15:09:25.631Z,4.31
2022-12-03T15:11:52.232Z,3.91
2022-12-03T15:14:18.875Z,3.87
2022-12-03T15:16:45.504Z,3.47
2022-12-03T15:19:13.927Z,3.93
2022-12-03T15:21:40.543Z,3.90
2022-12-03T15:24:07.593Z,3.88
2022-12-03T15:26:34.219Z,3.71
2022-12-03T15:29:00.807Z,3.88
2022-12-03T15:31:27.467Z,3.82
2022-12-03T15:33:54.091Z,4.00
2022-12-03T15:36:20.702Z,3.91
2022-12-03T15:38:47.258Z,4.08
2022-12-03T15:41:28.654Z,3.78
2022-12-03T15:43:59.833Z,4.13
2022-12-03T15:46:27.821Z,4.11
2022-12-03T15:48:55.497Z,3.98
2022-12-03T15:51:22.117Z,4.01
2022-12-03T15:53:48.727Z,3.72
2022-12-03T15:56:15.338Z,3.60
2022-12-03T15:58:42.084Z,3.77
2022-12-03T16:01:09.516Z,3.58
2022-12-03T16:03:36.759Z,4.18
2022-12-03T16:06:03.581Z,4.04
2022-12-03T16:08:30.263Z,4.01
2022-12-03T16:10:56.890Z,4.12
2022-12-03T16:13:23.541Z,4.03
2022-12-03T16:15:50.241Z,3.85
2022-12-03T16:18:16.845Z,3.63
2022-12-03T16:20:43.437Z,3.83
2022-12-03T16:23:10.018Z,3.69
2022-12-03T16:25:36.592Z,3.79
2022-12-03T16:28:03.712Z,4.14
2022-12-03T16:30:45.431Z,3.62
2022-12-03T16:33:12.171Z,3.78
2022-12-03T16:35:38.758Z,3.71
2022-12-03T16:38:05.350Z,3.63
2022-12-03T16:40:31.932Z,3.64
2022-12-03T16:42:58.539Z,3.75
2022-12-03T16:45:54.022Z,3.13
2022-12-03T16:48:20.592Z,3.54
2022-12-03T16:50:47.321Z,3.71
2022-12-03T16:53:14.688Z,4.11
2022-12-03T16:55:41.307Z,4.05
2022-12-03T16:58:10.088Z,3.23
2022-12-03T17:00:36.839Z,3.30
2022-12-03T17:03:03.585Z,3.29
2022-12-03T17:05:30.310Z,3.31
2022-12-03T17:07:57.097Z,3.03
2022-12-03T17:10:23.944Z,3.05
2022-12-03T17:15:37.927Z,3.17
2022-12-03T17:18:04.730Z,3.29
2022-12-03T17:20:32.591Z,3.28
2022-12-03T17:22:59.664Z,3.67
2022-12-03T17:25:26.944Z,3.68
2022-12-03T17:27:53.510Z,3.79
2022-12-03T17:30:20.579Z,3.79
2022-12-03T17:32:48.814Z,3.72
2022-12-03T17:35:15.424Z,3.67
2022-12-03T17:37:42.107Z,3.33
2022-12-03T17:40:11.142Z,3.39
2022-12-03T17:42:37.942Z,3.61
2022-12-03T17:45:05.268Z,3.88
2022-12-03T17:47:31.956Z,3.96
2022-12-03T17:49:58.624Z,3.70
2022-12-03T17:52:25.221Z,3.56
2022-12-03T17:57:38.416Z,3.21
2022-12-03T18:00:05.815Z,3.68
2022-12-03T18:02:39.057Z,4.00
2022-12-03T18:05:05.834Z,4.04
2022-12-03T18:07:32.456Z,3.84
2022-12-03T18:09:59.214Z,3.64
2022-12-03T18:12:26.348Z,3.62
2022-12-03T18:14:52.943Z,3.91
2022-12-03T18:17:19.922Z,3.86
2022-12-03T18:19:46.524Z,3.96
2022-12-03T18:22:13.527Z,3.81
2022-12-03T18:24:40.555Z,3.87
2022-12-03T18:27:07.232Z,3.48
2022-12-03T18:29:33.918Z,3.35
2022-12-03T18:32:00.719Z,3.41
2022-12-03T18:34:27.324Z,3.32
2022-12-03T18:36:54.157Z,3.57
2022-12-03T18:39:26.824Z,3.40
2022-12-03T18:41:53.997Z,3.13
2022-12-03T18:44:21.145Z,3.33
2022-12-03T18:46:55.148Z,3.25
2022-12-03T18:49:22.300Z,3.70
2022-12-03T18:51:50.439Z,3.75
2022-12-03T18:54:18.836Z,3.22
2022-12-03T18:56:45.464Z,3.21
2022-12-03T18:59:12.293Z,3.48
2022-12-03T19:01:38.960Z,3.46
2022-12-03T19:04:05.653Z,3.31
2022-12-03T19:06:32.358Z,3.09
2022-12-03T19:08:59.115Z,3.60
2022-12-03T19:11:26.033Z,3.81
2022-12-03T19:13:52.797Z,3.32
2022-12-03T19:16:19.433Z,3.37
2022-12-03T19:18:46.217Z,2.95
2022-12-03T19:21:16.436Z,3.41
2022-12-03T19:24:04.239Z,2.90
2022-12-03T19:26:30.376Z,3.05
2022-12-03T19:28:57.187Z,2.75
2022-12-03T19:31:23.913Z,3.16
2022-12-03T19:33:51.751Z,3.48
2022-12-03T19:36:24.773Z,3.09
2022-12-03T19:38:56.817Z,3.13
2022-12-03T19:41:27.327Z,3.08
2022-12-03T19:43:55.345Z,2.92
2022-12-03T19:46:24.100Z,3.46
2022-12-03T19:48:50.949Z,3.05
2022-12-03T19:51:33.603Z,2.62
2022-12-03T19:54:03.214Z,3.20
2022-12-03T19:56:30.518Z,3.68
2022-12-03T19:58:57.712Z,3.28
2022-12-03T20:01:30.738Z,3.09
2022-12-03T20:03:59.157Z,2.91
2022-12-03T20:06:28.581Z,3.25
2022-12-03T20:09:00.123Z,3.33
2022-12-03T20:11:30.985Z,2.44
2022-12-03T20:14:11.072Z,3.11
2022-12-03T20:16:37.795Z,2.53
2022-12-03T20:19:07.024Z,2.72
2022-12-03T20:21:36.034Z,3.13
2022-12-03T20:24:03.723Z,3.10
2022-12-03T20:26:30.651Z,3.03
2022-12-03T20:28:58.137Z,2.62
2022-12-03T20:31:28.760Z,2.59
2022-12-03T20:33:57.940Z,2.33
2022-12-03T20:36:26.023Z,2.27
2022-12-03T20:38:57.573Z,2.36
2022-12-03T20:41:24.458Z,2.45
2022-12-03T20:43:51.540Z,2.39
2022-12-03T20:46:22.059Z,2.58
2022-12-03T20:48:49.144Z,2.24
2022-12-03T20:51:19.520Z,2.31
2022-12-03T20:53:46.467Z,2.72
2022-12-03T20:56:36.495Z,2.67
2022-12-03T20:59:11.789Z,2.74
2022-12-03T21:01:40.101Z,2.68
2022-12-03T21:04:07.489Z,2.93
2022-12-03T21:06:36.108Z,3.15
2022-12-03T21:09:05.676Z,2.83
2022-12-03T21:11:35.469Z,2.86
2022-12-03T21:14:03.106Z,3.13
2022-12-03T21:17:06.566Z,3.07
2022-12-03T21:19:20.398Z,2.72
2022-12-03T21:21:47.032Z,2.62
2022-12-03T21:24:13.866Z,2.85
2022-12-03T21:26:40.982Z,2.72
2022-12-03T21:29:07.899Z,3.09
2022-12-03T21:31:35.603Z,2.93
2022-12-03T21:34:02.885Z,3.08
2022-12-03T21:36:29.450Z,2.78
2022-12-03T21:38:56.057Z,2.53
2022-12-03T21:41:22.720Z,2.73
2022-12-03T21:43:49.376Z,2.46
2022-12-03T21:47:10.409Z,2.43
2022-12-03T21:49:03.891Z,2.52
2022-12-03T21:51:30.681Z,2.66
2022-12-03T21:53:57.294Z,2.85
2022-12-03T21:56:23.835Z,2.92
2022-12-03T21:58:50.436Z,2.95
2022-12-03T22:01:22.645Z,2.86
2022-12-03T22:04:05.583Z,3.02
2022-12-03T22:06:32.411Z,3.20
2022-12-03T22:08:59.024Z,2.91
2022-12-03T22:11:25.611Z,3.16
2022-12-03T22:13:52.387Z,3.00
2022-12-03T22:16:20.950Z,2.72
2022-12-03T22:18:48.248Z,2.42
2022-12-03T22:21:18.432Z,2.90
2022-12-03T22:23:45.684Z,3.35
2022-12-03T22:26:14.847Z,3.05
2022-12-03T22:28:46.141Z,2.58
2022-12-03T22:31:13.459Z,2.60
2022-12-03T22:33:41.029Z,2.57
2022-12-03T22:36:18.036Z,2.51
2022-12-03T22:38:47.043Z,2.89
2022-12-03T22:41:17.333Z,2.75
2022-12-03T22:43:45.002Z,2.41
2022-12-03T22:46:12.835Z,2.56
2022-12-03T22:48:41.085Z,2.64
2022-12-03T22:51:14.630Z,2.61
2022-12-03T22:53:41.237Z,2.51
2022-12-03T22:56:07.844Z,2.73
2022-12-03T22:58:34.813Z,2.96
2022-12-03T23:01:03.064Z,2.88
2022-12-03T23:03:30.417Z,2.60
2022-12-03T23:05:57.075Z,2.68
2022-12-03T23:08:23.836Z,2.48
2022-12-03T23:10:52.418Z,2.85
2022-12-03T23:13:20.117Z,2.88
2022-12-03T23:15:49.385Z,2.93
2022-12-03T23:18:16.604Z,3.44
2022-12-03T23:20:49.447Z,3.18
2022-12-03T23:23:16.923Z,2.35
2022-12-03T23:25:44.205Z,3.07
2022-12-03T23:28:11.246Z,2.70
2022-12-03T23:30:38.993Z,2.59
2022-12-03T23:33:06.575Z,2.88
2022-12-03T23:35:33.363Z,3.06
2022-12-03T23:38:00.046Z,3.24
2022-12-03T23:40:26.765Z,3.45
2022-12-03T23:42:53.439Z,3.66
2022-12-03T23:45:20.015Z,3.70
2022-12-03T23:47:46.637Z,2.84
2022-12-03T23:50:13.391Z,2.70
2022-12-03T23:52:40.236Z,2.48
2022-12-03T23:55:07.092Z,2.67
2022-12-03T23:57:34.425Z,2.74
